Time;durP1;ratioP1;P1;durP2;ratioP2;P2;SDS_P1;SDS_P2;PMS_P1;PMS_P2;Temp;Humidity;BMP_temperature;BMP_pressure;BME280_temperature;BME280_humidity;BME280_pressure;Samples;Min_cycle;Max_cycle;Signal;HPM_P1;HPM_P2
2022/07/16 00:09:31;;;;;;;;;;;;;;;20.79;37.38;100699.84;18356148;32;20115;-55
2022/07/16 00:19:36;;;;;;;2.58;1.25;;;;;;;20.89;37.23;100695.03;18355808;32;19993;-55
2022/07/16 00:29:39;;;;;;;2.37;1.20;;;;;;;21.01;36.82;100685.72;18354802;32;20520;-55
2022/07/16 00:39:44;;;;;;;3.33;1.30;;;;;;;21.08;36.83;100679.25;18355293;32;20113;-55
2022/07/16 00:49:47;;;;;;;2.47;1.42;;;;;;;21.01;37.22;100683.06;18356564;32;20120;-55
2022/07/16 00:59:52;;;;;;;4.07;1.52;;;;;;;20.93;37.52;100675.44;18363204;32;20097;-55
2022/07/16 01:09:55;;;;;;;2.17;1.52;;;;;;;20.63;39.12;100683.66;18364390;32;20112;-55
2022/07/16 01:20:00;;;;;;;3.62;1.30;;;;;;;19.58;41.76;100701.66;18362848;32;20093;-55
2022/07/16 01:30:08;;;;;;;2.47;1.30;;;;;;;19.49;41.89;100694.91;18362455;32;20097;-55
2022/07/16 01:40:11;;;;;;;1.75;1.05;;;;;;;19.17;43.56;100694.22;18414489;31;20125;-55
2022/07/16 01:50:16;;;;;;;2.90;1.30;;;;;;;18.80;43.83;100701.56;18362606;32;20486;-55
2022/07/16 02:00:20;;;;;;;3.35;1.60;;;;;;;18.36;45.38;100702.03;18359723;32;20424;-55
2022/07/16 02:10:24;;;;;;;3.17;1.48;;;;;;;18.03;46.55;100709.09;18360561;32;20089;-55
2022/07/16 02:20:28;;;;;;;2.83;1.50;;;;;;;17.47;48.65;100696.53;18360302;32;20120;-55
2022/07/16 02:30:33;;;;;;;3.58;1.73;;;;;;;17.51;48.62;100703.44;18359740;32;20141;-55
2022/07/16 02:40:37;;;;;;;4.53;1.70;;;;;;;17.32;49.20;100701.28;18412106;31;20116;-55
2022/07/16 02:50:41;;;;;;;3.65;1.60;;;;;;;16.85;50.95;100696.25;18359077;32;20115;-55
2022/07/16 03:00:45;;;;;;;4.18;1.77;;;;;;;16.87;50.71;100709.38;18412380;31;20097;-55
2022/07/16 03:10:54;;;;;;;2.90;1.45;;;;;;;16.68;51.33;100707.16;18357937;32;20097;-55
2022/07/16 03:20:58;;;;;;;2.75;1.40;;;;;;;16.67;51.66;100723.03;18358119;32;20120;-55
2022/07/16 03:31:02;;;;;;;3.28;1.77;;;;;;;16.46;51.94;100730.53;18357594;32;20448;-55
2022/07/16 03:41:05;;;;;;;7.12;2.17;;;;;;;16.34;53.20;100739.56;18358070;32;20093;-55
2022/07/16 03:51:10;;;;;;;5.43;1.98;;;;;;;16.42;53.61;100740.25;18356855;32;20093;-55
2022/07/16 04:01:13;;;;;;;5.55;2.03;;;;;;;16.41;54.75;100741.16;18353849;31;71675;-55
2022/07/16 04:11:18;;;;;;;3.28;1.70;;;;;;;16.67;54.80;100744.12;18355992;32;20093;-55
2022/07/16 04:21:21;;;;;;;5.18;1.80;;;;;;;17.83;52.71;100733.41;18355429;32;20181;-55
2022/07/16 04:31:26;;;;;;;29.73;2.92;;;;;;;18.42;51.74;100729.13;18354612;32;20378;-55
2022/07/16 04:41:29;;;;;;;7.78;2.17;;;;;;;18.91;51.18;100740.88;18408468;31;20594;-55
2022/07/16 04:51:33;;;;;;;4.82;1.45;;;;;;;19.82;48.76;100752.91;18353967;32;20104;-55
2022/07/16 05:01:37;;;;;;;4.22;1.60;;;;;;;20.90;47.13;100750.72;18353303;32;20093;-55
2022/07/16 05:11:41;;;;;;;3.75;1.65;;;;;;;21.21;43.84;100768.03;18353017;32;20115;-55
2022/07/16 05:21:44;;;;;;;4.22;1.37;;;;;;;21.19;42.21;100769.91;18352497;32;20132;-55
2022/07/16 05:31:49;;;;;;;6.10;1.67;;;;;;;21.15;41.71;100768.31;18352030;32;20090;-55
2022/07/16 05:41:52;;;;;;;4.00;1.37;;;;;;;21.44;41.30;100771.56;18361416;32;20108;-55
2022/07/16 05:51:57;;;;;;;2.92;1.30;;;;;;;21.88;40.49;100770.59;18361548;32;20112;-55
2022/07/16 06:02:00;;;;;;;3.75;1.48;;;;;;;22.31;38.90;100765.16;18360961;32;20186;-55
2022/07/16 06:12:05;;;;;;;2.62;1.27;;;;;;;22.89;38.22;100753.66;18361908;32;20651;-55
2022/07/16 06:22:09;;;;;;;2.62;1.33;;;;;;;23.15;37.45;100760.34;18414111;31;20098;-55
2022/07/16 06:32:13;;;;;;;3.30;1.40;;;;;;;24.39;33.91;100759.34;18359819;32;20097;-55
2022/07/16 06:42:16;;;;;;;2.22;1.10;;;;;;;24.90;32.43;100766.37;18359556;32;20115;-55
2022/07/16 06:52:21;;;;;;;2.87;1.20;;;;;;;25.16;31.14;100768.50;18358529;32;20147;-55
2022/07/16 07:02:24;;;;;;;3.03;1.20;;;;;;;25.82;30.84;100769.09;18358509;32;20108;-55
2022/07/16 07:12:29;;;;;;;1.12;0.80;;;;;;;26.77;27.54;100767.72;18358492;32;20145;-55
2022/07/16 07:22:32;;;;;;;2.15;1.17;;;;;;;26.75;26.40;100757.09;18357947;32;20361;-55
2022/07/16 07:32:36;;;;;;;0.98;0.60;;;;;;;26.98;26.50;100757.44;18357598;32;20090;-55
2022/07/16 07:42:40;;;;;;;2.05;1.00;;;;;;;27.27;25.09;100751.94;18357402;32;20090;-55
2022/07/16 07:52:45;;;;;;;2.62;1.00;;;;;;;27.11;26.39;100753.00;18410860;31;20111;-55
2022/07/16 08:02:48;;;;;;;1.15;0.73;;;;;;;28.55;23.52;100746.75;18356207;32;20187;-55
2022/07/16 08:12:53;;;;;;;2.90;1.02;;;;;;;28.91;22.32;100728.87;18355977;32;20090;-55
2022/07/16 08:22:56;;;;;;;2.20;1.15;;;;;;;28.96;23.06;100722.31;18355375;32;20119;-55
2022/07/16 08:33:00;;;;;;;3.90;1.10;;;;;;;29.08;23.32;100716.88;18355086;32;20093;-55
2022/07/16 08:43:04;;;;;;;2.92;0.98;;;;;;;29.47;22.49;100723.88;18355460;32;20108;-55
2022/07/16 08:53:09;;;;;;;1.80;1.10;;;;;;;29.84;22.35;100707.53;18353939;32;20112;-55
2022/07/16 09:03:13;;;;;;;1.67;0.93;;;;;;;29.99;21.72;100705.44;18353132;32;20116;-56
2022/07/16 09:13:18;;;;;;;2.08;0.80;;;;;;;30.18;22.16;100696.75;18358188;32;20134;-55
2022/07/16 09:23:24;;;;;;;4.97;1.37;;;;;;;30.52;21.20;100685.06;18362587;32;20116;-55
2022/07/16 09:33:29;;;;;;;2.22;0.98;;;;;;;30.09;21.73;100692.13;18363478;32;20666;-56
2022/07/16 09:43:32;;;;;;;2.70;1.37;;;;;;;30.43;21.73;100689.38;18361600;32;20116;-54
2022/07/16 09:53:38;;;;;;;2.80;1.02;;;;;;;31.47;20.34;100696.09;18415191;31;20097;-55
2022/07/16 10:03:42;;;;;;;4.95;1.58;;;;;;;30.90;20.50;100682.03;18360709;32;20578;-55
2022/07/16 10:13:48;;;;;;;2.03;0.95;;;;;;;30.26;21.90;100671.94;18360679;32;20113;-55
2022/07/16 10:24:04;;;;;;;4.07;1.20;;;;;;;30.72;21.96;100667.28;18411918;31;20097;-55
2022/07/16 10:34:37;;;;;;;2.95;1.40;;;;;;;31.89;19.47;100656.53;18359955;32;20421;-55
2022/07/16 10:44:45;;;;;;;2.80;1.20;;;;;;;32.22;19.15;100649.09;18412296;31;20133;-56
2022/07/16 10:55:04;;;;;;;1.75;1.10;;;;;;;32.48;19.62;100633.22;18412230;31;20097;-54
2022/07/16 11:05:08;;;;;;;1.63;0.90;;;;;;;33.25;19.19;100627.06;18358783;32;20347;-55
2022/07/16 11:15:13;;;;;;;2.05;1.02;;;;;;;32.48;19.01;100622.44;18358247;32;20101;-54
2022/07/16 11:25:16;;;;;;;1.67;1.00;;;;;;;32.52;19.75;100626.53;18411926;31;20117;-55
2022/07/16 11:35:21;;;;;;;2.17;1.20;;;;;;;32.93;19.47;100612.06;18409893;31;20112;-55
2022/07/16 11:45:27;;;;;;;4.85;1.37;;;;;;;33.45;19.36;100610.75;18357150;32;20372;-55
2022/07/16 11:55:31;;;;;;;5.00;1.20;;;;;;;33.84;19.21;100607.88;18356774;32;20097;-55
2022/07/16 12:05:35;;;;;;;4.40;1.27;;;;;;;32.75;19.90;100606.47;18357310;32;20116;-54
2022/07/16 12:15:56;;;;;;;3.03;1.45;;;;;;;32.58;20.28;100600.78;18409298;31;20101;-55
2022/07/16 12:26:03;;;;;;;3.83;1.30;;;;;;;32.92;20.54;100596.84;18356521;32;20371;-55
2022/07/16 12:36:09;;;;;;;2.75;1.48;;;;;;;33.59;18.93;100594.06;18355188;32;20102;-54
2022/07/16 12:46:13;;;;;;;1.75;1.12;;;;;;;33.32;19.08;100597.56;18357397;32;20089;-54
2022/07/16 13:06:39;;;;;;;2.83;1.10;;;;;;;34.01;17.68;100592.72;18364275;32;20129;-54
2022/07/16 13:16:44;;;;;;;2.20;1.30;;;;;;;33.90;17.79;100591.03;18416623;31;20112;-53
2022/07/16 13:26:54;;;;;;;2.72;1.30;;;;;;;33.68;18.14;100575.22;18415123;31;20116;-53
2022/07/16 13:37:20;;;;;;;3.92;1.37;;;;;;;33.76;18.31;100588.84;18362001;32;20089;-53
2022/07/16 13:47:23;;;;;;;2.72;1.30;;;;;;;33.14;19.17;100592.91;18415456;31;20140;-55
2022/07/16 14:07:49;;;;;;;2.03;1.25;;;;;;;32.15;19.64;100594.78;18413638;31;20622;-54
2022/07/16 14:17:56;;;;;;;2.50;1.10;;;;;;;32.06;19.58;100574.03;18413310;31;20105;-54
2022/07/16 14:28:00;;;;;;;4.75;1.40;;;;;;;32.39;19.15;100574.66;18360366;32;20077;-53
2022/07/16 14:38:05;;;;;;;3.42;1.55;;;;;;;32.54;18.60;100572.37;18359864;32;20483;-54
2022/07/16 14:48:08;;;;;;;6.10;1.80;;;;;;;32.51;19.26;100551.91;18412132;31;20125;-54
2022/07/16 14:58:13;;;;;;;4.65;2.10;;;;;;;32.63;19.00;100549.91;18358962;32;20112;-55
2022/07/16 15:08:18;;;;;;;3.55;1.50;;;;;;;32.24;19.67;100549.91;18358191;32;20107;-53
2022/07/16 15:18:24;;;;;;;2.50;1.33;;;;;;;32.57;19.12;100544.22;18411114;31;20148;-54
2022/07/16 15:28:27;;;;;;;4.18;1.27;;;;;;;32.21;19.55;100540.22;18358020;32;20129;-55
2022/07/16 15:38:32;;;;;;;4.28;1.30;;;;;;;32.08;19.93;100539.66;18357635;32;20097;-54
2022/07/16 15:48:35;;;;;;;1.90;1.10;;;;;;;31.83;20.27;100541.87;18409953;31;20115;-55
2022/07/16 15:58:40;;;;;;;1.73;1.33;;;;;;;31.77;20.89;100547.78;18356548;32;20102;-54
2022/07/16 16:08:43;;;;;;;3.17;1.20;;;;;;;31.67;20.52;100555.87;18356304;32;20125;-55
2022/07/16 16:18:48;;;;;;;5.20;1.42;;;;;;;31.48;21.35;100554.84;18354645;32;20124;-55
2022/07/16 16:28:51;;;;;;;4.00;1.80;;;;;;;31.28;22.07;100556.59;18408279;31;20099;-54
2022/07/16 16:38:56;;;;;;;4.03;1.50;;;;;;;30.99;21.80;100557.25;18354839;32;20720;-55
2022/07/16 16:48:59;;;;;;;4.40;1.50;;;;;;;30.77;22.07;100569.91;18354289;32;20093;-55
2022/07/16 16:59:04;;;;;;;3.20;1.30;;;;;;;30.17;22.17;100571.22;18354837;32;20120;-55
2022/07/16 17:09:11;;;;;;;4.55;1.80;;;;;;;30.32;21.67;100569.09;18353255;32;20146;-55
2022/07/16 17:19:16;;;;;;;3.55;1.50;;;;;;;30.10;22.38;100570.03;18405532;31;20105;-56
2022/07/16 17:29:19;;;;;;;3.55;1.50;;;;;;;30.06;23.39;100575.78;18406182;31;20091;-56
2022/07/16 17:39:24;;;;;;;3.40;1.40;;;;;;;29.89;22.68;100580.72;18362089;32;20093;-55
2022/07/16 17:59:50;;;;;;;3.35;1.50;;;;;;;29.67;21.59;100595.88;18361371;32;20094;-55
2022/07/16 18:09:53;;;;;;;3.95;1.30;;;;;;;29.65;21.80;100597.84;18361001;32;20094;-54
2022/07/16 18:19:58;;;;;;;3.35;1.17;;;;;;;29.44;21.71;100628.16;18361653;32;20116;-55
2022/07/16 18:30:01;;;;;;;1.73;1.02;;;;;;;29.12;21.37;100628.81;18360431;32;20459;-54
2022/07/16 18:40:09;;;;;;;1.70;0.93;;;;;;;28.89;21.28;100638.66;18412444;31;20153;-56
2022/07/16 18:50:12;;;;;;;4.95;1.40;;;;;;;28.78;21.31;100663.59;18358809;32;20085;-57
2022/07/16 19:00:17;;;;;;;2.35;1.17;;;;;;;28.54;21.88;100677.87;18410689;31;20141;-55
2022/07/16 19:10:21;;;;;;;2.72;1.20;;;;;;;28.17;22.74;100702.00;18410715;31;20085;-55
2022/07/16 19:20:26;;;;;;;2.50;1.33;;;;;;;28.15;22.93;100720.94;18358280;32;20129;-56
2022/07/16 19:30:29;;;;;;;1.55;1.00;;;;;;;27.80;23.83;100743.94;18358597;32;20108;-55
2022/07/16 19:40:36;;;;;;;2.00;1.23;;;;;;;27.87;24.12;100755.06;18409197;31;20101;-56
2022/07/16 19:50:40;;;;;;;2.85;1.35;;;;;;;27.93;23.92;100767.19;18409920;31;20411;-55
2022/07/16 20:00:45;;;;;;;2.33;1.20;;;;;;;27.81;23.84;100788.56;18410290;31;20115;-55
2022/07/16 20:10:49;;;;;;;2.00;0.88;;;;;;;27.66;24.24;100801.19;18410161;31;20388;-55
2022/07/16 20:20:54;;;;;;;2.40;1.00;;;;;;;27.48;23.71;100805.94;18354211;32;20362;-56
2022/07/16 20:30:57;;;;;;;2.10;0.80;;;;;;;27.40;23.40;100810.94;18352500;32;20111;-55
2022/07/16 20:41:01;;;;;;;1.23;0.70;;;;;;;27.19;23.66;100815.94;18354361;32;20086;-55
2022/07/16 20:51:05;;;;;;;2.42;0.85;;;;;;;26.82;23.97;100836.09;18408335;31;20512;-55
2022/07/16 21:01:09;;;;;;;2.92;0.82;;;;;;;26.87;24.15;100842.00;18406324;31;20097;-55
2022/07/16 21:11:13;;;;;;;2.03;0.73;;;;;;;26.52;24.26;100863.00;18414077;31;20101;-55
2022/07/16 21:21:17;;;;;;;1.70;0.80;;;;;;;26.36;25.06;100879.97;18362989;32;20097;-55
2022/07/16 21:31:20;;;;;;;2.15;1.00;;;;;;;26.35;25.18;100894.31;18415201;31;20101;-56
2022/07/16 21:41:25;;;;;;;2.65;0.90;;;;;;;25.98;26.21;100901.87;18362303;31;20166;-56
2022/07/16 21:51:29;;;;;;;1.62;0.95;;;;;;;25.87;26.41;100921.25;18415600;31;20429;-56
2022/07/16 22:01:33;;;;;;;1.55;0.90;;;;;;;25.76;26.67;100928.06;18361269;32;20108;-56
2022/07/16 22:11:37;;;;;;;3.53;1.12;;;;;;;25.54;27.19;100952.50;18414947;31;20438;-55
2022/07/16 22:21:41;;;;;;;1.52;0.80;;;;;;;25.53;27.47;100980.19;18413528;31;20106;-55
2022/07/16 22:31:45;;;;;;;1.45;0.90;;;;;;;25.11;28.06;100997.59;18413201;31;20093;-55
2022/07/16 22:41:49;;;;;;;1.83;0.95;;;;;;;25.02;28.29;101013.16;18359983;31;20650;-55
2022/07/16 22:51:53;;;;;;;1.45;0.90;;;;;;;25.02;28.45;101026.50;18359844;31;20430;-56
2022/07/16 23:01:57;;;;;;;1.17;0.75;;;;;;;24.80;28.86;101040.13;18411533;31;20097;-55
2022/07/16 23:12:01;;;;;;;1.52;0.90;;;;;;;24.44;29.69;101052.59;18358716;31;20355;-55
2022/07/16 23:22:06;;;;;;;1.33;0.95;;;;;;;24.02;30.82;101064.44;18358399;32;20393;-55
2022/07/16 23:32:09;;;;;;;1.25;1.05;;;;;;;23.60;31.51;101075.22;18357156;32;20090;-55
2022/07/16 23:42:14;;;;;;;1.70;0.80;;;;;;;23.18;32.57;101077.09;18358590;32;20081;-55
2022/07/16 23:52:17;;;;;;;1.42;0.93;;;;;;;22.70;33.62;101084.50;18357097;31;20098;-55
